ASA61 PACV-PANC
Flight info
| Callsign | ASA61 |
|---|---|
| Flight time | 0h 32m |
| Altitude | 24000 |
| Route | EYAKS6 EYAKS JOH WITTI5 |
| Aircraft | B737/M-SDE2E3FGHIRWXY/LB1 |
Departure
| Time | 2026-04-24 21:50 |
|---|---|
| Airport | Merle K (Mudhole) Smith Airport (PACV) |
Arrival
| Time | 2026-04-24 22:23 |
|---|---|
| Airport | Ted Stevens Anchorage International Airport (PANC) |
| Time | Latitude | Longitude | Altitude | Speed | Heading |
|---|---|---|---|---|---|
| 2026-04-24 21:37 | 60.49421 | -145.47274 | 47 ft | 0 kts | 121° |
| 2026-04-24 21:42 | 60.49422 | -145.47277 | 53 ft | 2 kts | 121° |
| 2026-04-24 21:43 | 60.49435 | -145.47319 | 48 ft | 4 kts | 117° |
| 2026-04-24 21:43 | 60.49440 | -145.47365 | 47 ft | 4 kts | 66° |
| 2026-04-24 21:43 | 60.49427 | -145.47411 | 53 ft | 4 kts | 69° |
| 2026-04-24 21:43 | 60.49424 | -145.47435 | 47 ft | 0 kts | 114° |
| 2026-04-24 21:46 | 60.49423 | -145.47429 | 48 ft | 2 kts | 118° |
| 2026-04-24 21:46 | 60.49403 | -145.47412 | 49 ft | 5 kts | 176° |
| 2026-04-24 21:46 | 60.49353 | -145.47441 | 52 ft | 9 kts | 202° |
| 2026-04-24 21:47 | 60.49293 | -145.47496 | 50 ft | 9 kts | 204° |
| 2026-04-24 21:47 | 60.49254 | -145.47532 | 52 ft | 10 kts | 204° |
| 2026-04-24 21:47 | 60.49240 | -145.47720 | 53 ft | 13 kts | 294° |
| 2026-04-24 21:47 | 60.49285 | -145.47924 | 50 ft | 18 kts | 294° |
| 2026-04-24 21:48 | 60.49344 | -145.48194 | 51 ft | 24 kts | 294° |
| 2026-04-24 21:48 | 60.49418 | -145.48524 | 51 ft | 28 kts | 298° |
| 2026-04-24 21:48 | 60.49500 | -145.48891 | 52 ft | 28 kts | 294° |
| 2026-04-24 21:48 | 60.49576 | -145.49235 | 52 ft | 24 kts | 294° |
| 2026-04-24 21:49 | 60.49622 | -145.49480 | 52 ft | 13 kts | 271° |
| 2026-04-24 21:49 | 60.49632 | -145.49633 | 49 ft | 4 kts | 290° |
| 2026-04-24 21:49 | 60.49654 | -145.49637 | 54 ft | 4 kts | 48° |
| 2026-04-24 21:49 | 60.49651 | -145.49575 | 52 ft | 6 kts | 109° |
| 2026-04-24 21:50 | 60.49570 | -145.49202 | 51 ft | 65 kts | 114° |
| 2026-04-24 21:50 | 60.49283 | -145.47909 | 52 ft | 134 kts | 115° |
| 2026-04-24 21:50 | 60.48882 | -145.46035 | 556 ft | 146 kts | 112° |
| 2026-04-24 21:50 | 60.48337 | -145.44347 | 1282 ft | 149 kts | 141° |
| 2026-04-24 21:51 | 60.47269 | -145.43518 | 1751 ft | 183 kts | 178° |
| 2026-04-24 21:51 | 60.46006 | -145.44188 | 2783 ft | 191 kts | 192° |
| 2026-04-24 21:51 | 60.44861 | -145.45845 | 3479 ft | 224 kts | 228° |
| 2026-04-24 21:51 | 60.44433 | -145.48999 | 4326 ft | 241 kts | 262° |
| 2026-04-24 21:52 | 60.44243 | -145.52323 | 5257 ft | 237 kts | 254° |
| 2026-04-24 21:52 | 60.43987 | -145.55624 | 6165 ft | 237 kts | 256° |
| 2026-04-24 21:52 | 60.43585 | -145.58792 | 7065 ft | 227 kts | 233° |
| 2026-04-24 21:52 | 60.42634 | -145.61225 | 8000 ft | 217 kts | 216° |
| 2026-04-24 21:53 | 60.41517 | -145.63217 | 8897 ft | 218 kts | 215° |
| 2026-04-24 21:53 | 60.40360 | -145.65185 | 9941 ft | 215 kts | 214° |
| 2026-04-24 21:53 | 60.39350 | -145.67541 | 10690 ft | 235 kts | 238° |
| 2026-04-24 21:53 | 60.38805 | -145.70732 | 11544 ft | 245 kts | 250° |
| 2026-04-24 21:54 | 60.38526 | -145.74319 | 12060 ft | 276 kts | 263° |
| 2026-04-24 21:54 | 60.38792 | -145.78455 | 12314 ft | 315 kts | 276° |
| 2026-04-24 21:54 | 60.39282 | -145.82928 | 12869 ft | 333 kts | 278° |
| 2026-04-24 21:54 | 60.39833 | -145.87532 | 13773 ft | 339 kts | 278° |
| 2026-04-24 21:55 | 60.40396 | -145.92175 | 14694 ft | 341 kts | 278° |
| 2026-04-24 21:55 | 60.40958 | -145.96867 | 15570 ft | 345 kts | 277° |
| 2026-04-24 21:55 | 60.41511 | -146.01553 | 16428 ft | 348 kts | 277° |
| 2026-04-24 21:55 | 60.42070 | -146.06349 | 17347 ft | 352 kts | 277° |
| 2026-04-24 21:56 | 60.42630 | -146.11206 | 18222 ft | 357 kts | 277° |
| 2026-04-24 21:56 | 60.43193 | -146.16137 | 19107 ft | 361 kts | 276° |
| 2026-04-24 21:56 | 60.43758 | -146.21096 | 20038 ft | 362 kts | 276° |
| 2026-04-24 21:56 | 60.44323 | -146.26065 | 21066 ft | 361 kts | 275° |
| 2026-04-24 21:57 | 60.44881 | -146.30978 | 22293 ft | 354 kts | 274° |
| 2026-04-24 21:57 | 60.45426 | -146.35793 | 23509 ft | 348 kts | 273° |
| 2026-04-24 21:57 | 60.45962 | -146.40592 | 24045 ft | 349 kts | 273° |
| 2026-04-24 21:57 | 60.46500 | -146.45485 | 24171 ft | 363 kts | 272° |
| 2026-04-24 21:58 | 60.47060 | -146.50575 | 24619 ft | 374 kts | 273° |
| 2026-04-24 21:58 | 60.47633 | -146.55718 | 25461 ft | 372 kts | 272° |
| 2026-04-24 21:58 | 60.48204 | -146.60734 | 26469 ft | 368 kts | 274° |
| 2026-04-24 21:58 | 60.48929 | -146.65715 | 27467 ft | 368 kts | 277° |
| 2026-04-24 21:59 | 60.49751 | -146.70676 | 28043 ft | 372 kts | 277° |
| 2026-04-24 21:59 | 60.50607 | -146.75652 | 28304 ft | 373 kts | 278° |
| 2026-04-24 21:59 | 60.51463 | -146.80631 | 28284 ft | 372 kts | 277° |
| 2026-04-24 22:00 | 60.53126 | -146.90486 | 28305 ft | 370 kts | 276° |
| 2026-04-24 22:00 | 60.54759 | -147.00426 | 28302 ft | 371 kts | 276° |
| 2026-04-24 22:01 | 60.56389 | -147.10426 | 28349 ft | 373 kts | 276° |
| 2026-04-24 22:01 | 60.58017 | -147.20504 | 28295 ft | 375 kts | 276° |
| 2026-04-24 22:02 | 60.59625 | -147.30506 | 28281 ft | 373 kts | 276° |
| 2026-04-24 22:02 | 60.61228 | -147.40537 | 28281 ft | 372 kts | 275° |
| 2026-04-24 22:03 | 60.62816 | -147.50544 | 28248 ft | 370 kts | 275° |
| 2026-04-24 22:03 | 60.64391 | -147.60528 | 28258 ft | 369 kts | 275° |
| 2026-04-24 22:04 | 60.65954 | -147.70498 | 28255 ft | 369 kts | 275° |
| 2026-04-24 22:04 | 60.67502 | -147.80453 | 28269 ft | 371 kts | 275° |
| 2026-04-24 22:05 | 60.69061 | -147.90501 | 28268 ft | 372 kts | 275° |
| 2026-04-24 22:05 | 60.70620 | -148.00607 | 27847 ft | 373 kts | 275° |
| 2026-04-24 22:05 | 60.71395 | -148.05635 | 27367 ft | 372 kts | 275° |
| 2026-04-24 22:06 | 60.71906 | -148.08967 | 27048 ft | 369 kts | 275° |
| 2026-04-24 22:06 | 60.72925 | -148.15610 | 26308 ft | 368 kts | 275° |
| 2026-04-24 22:06 | 60.73437 | -148.18962 | 25975 ft | 364 kts | 275° |
| 2026-04-24 22:06 | 60.74422 | -148.25464 | 25360 ft | 359 kts | 275° |
| 2026-04-24 22:07 | 60.74906 | -148.28687 | 25031 ft | 358 kts | 275° |
| 2026-04-24 22:07 | 60.75632 | -148.33542 | 24557 ft | 356 kts | 275° |
| 2026-04-24 22:07 | 60.76352 | -148.38376 | 24068 ft | 355 kts | 276° |
| 2026-04-24 22:07 | 60.77068 | -148.43203 | 23519 ft | 355 kts | 276° |
| 2026-04-24 22:08 | 60.77783 | -148.48052 | 22972 ft | 353 kts | 276° |
| 2026-04-24 22:08 | 60.78494 | -148.52849 | 22494 ft | 352 kts | 277° |
| 2026-04-24 22:08 | 60.79206 | -148.57676 | 21973 ft | 356 kts | 277° |
| 2026-04-24 22:08 | 60.79925 | -148.62601 | 21499 ft | 370 kts | 278° |
| 2026-04-24 22:09 | 60.80680 | -148.67837 | 20978 ft | 397 kts | 278° |
| 2026-04-24 22:09 | 60.81487 | -148.73437 | 20367 ft | 413 kts | 279° |
| 2026-04-24 22:09 | 60.82300 | -148.78961 | 19755 ft | 405 kts | 280° |
| 2026-04-24 22:09 | 60.83108 | -148.84422 | 19167 ft | 394 kts | 280° |
| 2026-04-24 22:10 | 60.83885 | -148.89722 | 18638 ft | 382 kts | 281° |
| 2026-04-24 22:10 | 60.84633 | -148.94864 | 18053 ft | 373 kts | 280° |
| 2026-04-24 22:10 | 60.85363 | -148.99922 | 17477 ft | 365 kts | 280° |
| 2026-04-24 22:10 | 60.86075 | -149.04893 | 16946 ft | 358 kts | 280° |
| 2026-04-24 22:11 | 60.86769 | -149.09758 | 16442 ft | 353 kts | 280° |
| 2026-04-24 22:11 | 60.87458 | -149.14583 | 15788 ft | 350 kts | 280° |
| 2026-04-24 22:11 | 60.88122 | -149.19295 | 15286 ft | 344 kts | 280° |
| 2026-04-24 22:11 | 60.88877 | -149.23915 | 14813 ft | 337 kts | 287° |
| 2026-04-24 22:12 | 60.89823 | -149.28245 | 14472 ft | 327 kts | 287° |
| 2026-04-24 22:12 | 60.90750 | -149.32484 | 14108 ft | 324 kts | 290° |
| 2026-04-24 22:12 | 60.91757 | -149.36608 | 13702 ft | 321 kts | 290° |
| 2026-04-24 22:12 | 60.92749 | -149.40701 | 13306 ft | 319 kts | 289° |
| 2026-04-24 22:13 | 60.93704 | -149.44805 | 12880 ft | 318 kts | 289° |
| 2026-04-24 22:13 | 60.94629 | -149.48840 | 12544 ft | 314 kts | 289° |
| 2026-04-24 22:13 | 60.95551 | -149.52914 | 12171 ft | 314 kts | 288° |
| 2026-04-24 22:13 | 60.96468 | -149.56999 | 11802 ft | 315 kts | 288° |
| 2026-04-24 22:14 | 60.97391 | -149.61101 | 11448 ft | 315 kts | 288° |
| 2026-04-24 22:14 | 60.98307 | -149.65206 | 11102 ft | 315 kts | 288° |
| 2026-04-24 22:14 | 60.99231 | -149.69311 | 10718 ft | 314 kts | 290° |
| 2026-04-24 22:14 | 61.00176 | -149.73349 | 10335 ft | 312 kts | 297° |
| 2026-04-24 22:15 | 61.01605 | -149.76737 | 9976 ft | 314 kts | 315° |
| 2026-04-24 22:15 | 61.03200 | -149.79684 | 9917 ft | 298 kts | 315° |
| 2026-04-24 22:15 | 61.04730 | -149.82527 | 9356 ft | 301 kts | 315° |
| 2026-04-24 22:15 | 61.06257 | -149.85422 | 8931 ft | 301 kts | 315° |
| 2026-04-24 22:16 | 61.07787 | -149.88352 | 8543 ft | 298 kts | 315° |
| 2026-04-24 22:16 | 61.09291 | -149.91290 | 8188 ft | 295 kts | 310° |
| 2026-04-24 22:16 | 61.10297 | -149.94873 | 7841 ft | 285 kts | 282° |
| 2026-04-24 22:16 | 61.10536 | -149.98832 | 7549 ft | 274 kts | 264° |
| 2026-04-24 22:17 | 61.10495 | -150.02779 | 7244 ft | 276 kts | 262° |
| 2026-04-24 22:17 | 61.10427 | -150.06788 | 6923 ft | 282 kts | 262° |
| 2026-04-24 22:17 | 61.10360 | -150.10816 | 6608 ft | 285 kts | 262° |
| 2026-04-24 22:17 | 61.10299 | -150.14944 | 6274 ft | 287 kts | 263° |
| 2026-04-24 22:18 | 61.10244 | -150.19076 | 5922 ft | 288 kts | 263° |
| 2026-04-24 22:18 | 61.10217 | -150.23211 | 5567 ft | 288 kts | 271° |
| 2026-04-24 22:18 | 61.10794 | -150.27189 | 5200 ft | 293 kts | 300° |
| 2026-04-24 22:18 | 61.12161 | -150.30202 | 4997 ft | 280 kts | 329° |
| 2026-04-24 22:19 | 61.13889 | -150.31480 | 4852 ft | 251 kts | 2° |
| 2026-04-24 22:19 | 61.15425 | -150.30661 | 4687 ft | 213 kts | 42° |
| 2026-04-24 22:19 | 61.16219 | -150.28397 | 4227 ft | 193 kts | 77° |
| 2026-04-24 22:19 | 61.16538 | -150.25767 | 3723 ft | 182 kts | 84° |
| 2026-04-24 22:20 | 61.16695 | -150.23231 | 3213 ft | 174 kts | 86° |
| 2026-04-24 22:20 | 61.16773 | -150.20762 | 2682 ft | 169 kts | 90° |
| 2026-04-24 22:20 | 61.16782 | -150.18343 | 2149 ft | 166 kts | 91° |
| 2026-04-24 22:20 | 61.16781 | -150.15968 | 1639 ft | 162 kts | 90° |
| 2026-04-24 22:21 | 61.16779 | -150.13681 | 1129 ft | 156 kts | 89° |
| 2026-04-24 22:21 | 61.16778 | -150.11557 | 876 ft | 138 kts | 88° |
| 2026-04-24 22:21 | 61.16779 | -150.09632 | 689 ft | 131 kts | 86° |
| 2026-04-24 22:21 | 61.16779 | -150.07703 | 520 ft | 139 kts | 86° |
| 2026-04-24 22:22 | 61.16781 | -150.05733 | 321 ft | 139 kts | 89° |
| 2026-04-24 22:22 | 61.16783 | -150.03712 | 157 ft | 139 kts | 89° |
| 2026-04-24 22:22 | 61.16786 | -150.01929 | 137 ft | 104 kts | 90° |
| 2026-04-24 22:22 | 61.16786 | -150.00745 | 132 ft | 60 kts | 90° |
| 2026-04-24 22:23 | 61.16787 | -150.00163 | 130 ft | 30 kts | 90° |
| 2026-04-24 22:23 | 61.16810 | -149.99754 | 125 ft | 28 kts | 75° |
| 2026-04-24 22:23 | 61.16892 | -149.99422 | 122 ft | 23 kts | 43° |
| 2026-04-24 22:23 | 61.17020 | -149.99238 | 122 ft | 22 kts | 37° |
| 2026-04-24 22:24 | 61.17129 | -149.99049 | 114 ft | 19 kts | 47° |
| 2026-04-24 22:24 | 61.17215 | -149.98852 | 111 ft | 18 kts | 47° |
| 2026-04-24 22:24 | 61.17302 | -149.98721 | 110 ft | 13 kts | 32° |
| 2026-04-24 22:24 | 61.17376 | -149.98617 | 109 ft | 13 kts | 33° |
| 2026-04-24 22:25 | 61.17429 | -149.98557 | 107 ft | 5 kts | 25° |
| 2026-04-24 22:25 | 61.17458 | -149.98514 | 108 ft | 5 kts | 54° |
| 2026-04-24 22:25 | 61.17466 | -149.98452 | 109 ft | 3 kts | 82° |
| 2026-04-24 22:25 | 61.17468 | -149.98423 | 108 ft | 1 kts | 82° |
| 2026-04-24 22:26 | 61.17469 | -149.98418 | 109 ft | 0 kts | 82° |